Time;durP1;ratioP1;P1;durP2;ratioP2;P2;SDS_P1;SDS_P2;PMS_P1;PMS_P2;Temp;Humidity;BMP_temperature;BMP_pressure;BME280_temperature;BME280_humidity;BME280_pressure;Samples;Min_cycle;Max_cycle;Signal;HPM_P1;HPM_P2
2023/06/08 00:02:18;;;;;;;9.30;6.30;;;;;;;14.63;72.29;100665.42;102558;279;119981;-55
2023/06/08 00:05:02;;;;;;;7.90;7.10;;;;;;;14.60;72.46;100667.00;102580;278;104452;-56
2023/06/08 00:07:42;;;;;;;7.00;6.10;;;;;;;14.55;72.62;100671.65;102455;266;114373;-56
2023/06/08 00:10:22;;;;;;;9.60;6.10;;;;;;;14.51;72.71;100670.56;102514;278;96390;-56
2023/06/08 00:12:57;;;;;;;10.90;6.80;;;;;;;14.43;72.87;100675.45;102509;279;97458;-54
2023/06/08 00:15:34;;;;;;;7.20;6.30;;;;;;;14.38;72.91;100678.63;102515;278;120235;-57
2023/06/08 00:18:13;;;;;;;8.80;6.60;;;;;;;14.30;73.21;100682.52;102501;278;103834;-59
2023/06/08 00:20:51;;;;;;;8.80;6.30;;;;;;;14.24;73.19;100681.13;102509;279;114588;-58
2023/06/08 00:23:28;;;;;;;7.30;6.60;;;;;;;14.23;73.32;100676.65;102523;278;94196;-59
2023/06/08 00:26:03;;;;;;;8.50;6.30;;;;;;;14.19;73.68;100675.30;102593;278;97573;-59
2023/06/08 00:28:48;;;;;;;8.20;6.70;;;;;;;14.14;73.69;100674.83;102388;280;120832;-59
2023/06/08 00:31:23;;;;;;;7.60;6.30;;;;;;;14.09;73.86;100677.24;102586;278;105598;-59
2023/06/08 00:33:59;;;;;;;9.20;6.90;;;;;;;14.04;74.04;100677.19;102643;278;113691;-56
2023/06/08 00:36:33;;;;;;;9.40;7.10;;;;;;;14.00;74.13;100673.58;102634;278;95682;-56
2023/06/08 00:39:10;;;;;;;8.70;6.60;;;;;;;13.97;74.23;100672.27;102583;279;97080;-57
2023/06/08 00:41:52;;;;;;;8.80;6.60;;;;;;;13.93;74.35;100675.02;102554;278;120274;-56
2023/06/08 00:44:26;;;;;;;8.40;7.00;;;;;;;13.88;74.44;100676.14;102562;278;105399;-55
2023/06/08 00:47:02;;;;;;;9.00;6.60;;;;;;;13.87;74.68;100672.96;102543;278;113542;-55
2023/06/08 00:49:41;;;;;;;10.70;6.00;;;;;;;13.86;74.83;100673.29;102531;278;95188;-56
2023/06/08 00:52:16;;;;;;;8.20;7.10;;;;;;;13.85;74.91;100670.32;102498;278;97001;-58
2023/06/08 00:54:48;;;;;;;8.00;7.00;;;;;;;13.82;74.87;100668.26;102480;278;120059;-58
2023/06/08 00:57:25;;;;;;;12.00;7.70;;;;;;;13.76;74.94;100669.37;102529;278;104279;-58
2023/06/08 01:00:04;;;;;;;15.40;6.60;;;;;;;13.73;75.23;100667.98;102499;278;113606;-55
2023/06/08 01:02:47;;;;;;;12.00;7.40;;;;;;;13.70;75.38;100670.18;102507;278;97130;-56
2023/06/08 01:05:25;;;;;;;7.60;6.60;;;;;;;13.66;75.44;100670.95;102567;278;96322;-56
2023/06/08 01:08:17;;;;;;;10.20;6.90;;;;;;;13.62;75.57;100669.61;102556;278;119713;-56
2023/06/08 01:11:06;;;;;;;7.50;6.70;;;;;;;13.63;75.56;100673.15;102568;278;105864;-55
2023/06/08 01:13:53;;;;;;;8.60;7.50;;;;;;;13.60;75.79;100670.55;102507;278;114431;-58
2023/06/08 01:16:37;;;;;;;8.40;7.50;;;;;;;13.57;75.93;100671.75;102528;279;95905;-56
2023/06/08 01:19:17;;;;;;;8.50;7.50;;;;;;;13.51;75.90;100666.37;102564;278;98321;-58
2023/06/08 01:22:09;;;;;;;11.70;7.50;;;;;;;13.46;76.03;100663.09;102508;278;119349;-58
2023/06/08 01:24:56;;;;;;;11.20;7.70;;;;;;;13.40;76.16;100662.98;102562;278;105478;-58
2023/06/08 01:27:36;;;;;;;9.30;7.40;;;;;;;13.34;76.20;100662.46;102529;279;114643;-59
2023/06/08 01:30:25;;;;;;;12.80;7.20;;;;;;;13.30;76.13;100664.55;102563;278;93879;-58
2023/06/08 01:32:58;;;;;;;8.10;6.80;;;;;;;13.24;76.37;100668.70;102575;278;98060;-58
2023/06/08 01:35:40;;;;;;;10.30;6.90;;;;;;;13.19;76.47;100672.42;102563;278;119947;-55
2023/06/08 01:38:24;;;;;;;9.80;7.50;;;;;;;13.17;76.48;100672.16;102535;278;103649;-55
2023/06/08 01:41:05;;;;;;;9.60;8.00;;;;;;;13.20;76.74;100668.72;102534;278;113794;-56
2023/06/08 01:43:41;;;;;;;11.00;7.60;;;;;;;13.21;77.00;100670.02;102559;277;95880;-55
2023/06/08 01:46:15;;;;;;;8.10;7.30;;;;;;;13.23;77.09;100674.73;102610;278;97361;-55
2023/06/08 01:48:58;;;;;;;10.00;8.10;;;;;;;13.22;77.13;100674.41;102538;278;119183;-55
2023/06/08 01:51:34;;;;;;;10.40;8.10;;;;;;;13.17;76.88;100676.27;102566;278;105439;-56
2023/06/08 01:54:07;;;;;;;9.20;7.60;;;;;;;13.12;77.12;100674.13;102553;278;114157;-56
2023/06/08 01:56:43;;;;;;;9.00;8.00;;;;;;;13.08;77.04;100672.86;102614;278;92362;-56
2023/06/08 01:59:15;;;;;;;10.50;7.70;;;;;;;13.03;77.22;100669.42;102589;278;97508;-56
2023/06/08 02:01:49;;;;;;;10.50;8.30;;;;;;;13.00;77.25;100671.82;102582;278;119023;-55
2023/06/08 02:04:22;;;;;;;10.10;7.70;;;;;;;12.96;77.49;100675.33;102640;278;106407;-60
2023/06/08 02:07:00;;;;;;;11.00;7.80;;;;;;;12.93;77.51;100676.02;102556;278;114747;-59
2023/06/08 02:09:37;;;;;;;8.70;7.80;;;;;;;12.90;77.62;100673.24;102606;278;95951;-56
2023/06/08 02:12:11;;;;;;;10.10;7.50;;;;;;;12.89;77.83;100672.73;102588;278;97566;-55
2023/06/08 02:14:43;;;;;;;8.70;7.40;;;;;;;12.91;77.98;100671.95;102612;278;119817;-54
2023/06/08 02:17:26;;;;;;;9.30;7.70;;;;;;;12.93;78.17;100673.44;102555;278;105920;-53
2023/06/08 02:20:06;;;;;;;9.30;7.80;;;;;;;12.95;78.14;100674.02;102536;278;112929;-58
2023/06/08 02:22:45;;;;;;;9.80;8.30;;;;;;;12.96;78.25;100675.08;102595;278;96192;-60
2023/06/08 02:25:18;;;;;;;9.20;7.80;;;;;;;12.94;78.29;100680.33;102585;278;97383;-59
2023/06/08 02:27:53;;;;;;;9.50;7.20;;;;;;;12.91;78.46;100680.64;102667;278;119619;-59
2023/06/08 02:30:32;;;;;;;11.90;7.30;;;;;;;12.90;78.39;100676.55;102645;278;106203;-58
2023/06/08 02:33:04;;;;;;;10.30;7.40;;;;;;;12.92;78.63;100680.98;102585;278;114211;-58
2023/06/08 02:35:43;;;;;;;9.50;7.40;;;;;;;13.02;78.76;100678.76;102649;278;95827;-56
2023/06/08 02:38:15;;;;;;;10.60;7.30;;;;;;;13.19;78.75;100674.59;102692;278;98116;-57
2023/06/08 02:40:50;;;;;;;9.60;7.40;;;;;;;13.31;78.84;100676.21;102681;278;119917;-57
2023/06/08 02:43:28;;;;;;;9.10;8.10;;;;;;;13.40;79.03;100675.59;102585;278;105438;-58
2023/06/08 02:46:05;;;;;;;8.00;7.20;;;;;;;13.48;78.91;100680.10;102670;278;114551;-58
2023/06/08 02:48:42;;;;;;;8.60;7.10;;;;;;;13.53;78.81;100676.49;102638;278;97006;-55
2023/06/08 02:51:22;;;;;;;9.90;7.50;;;;;;;13.58;78.93;100673.55;102623;278;98190;-56
2023/06/08 02:54:05;;;;;;;10.40;7.50;;;;;;;13.63;78.86;100673.44;102700;278;120065;-58
2023/06/08 02:56:41;;;;;;;10.10;7.20;;;;;;;13.68;78.84;100673.10;102434;279;104635;-58
2023/06/08 02:59:24;;;;;;;8.90;7.20;;;;;;;13.71;78.78;100673.52;102628;278;113689;-57
2023/06/08 03:02:01;;;;;;;9.00;7.90;;;;;;;13.76;78.93;100676.59;102559;278;96260;-56
2023/06/08 03:04:34;;;;;;;10.70;8.10;;;;;;;13.89;78.91;100677.39;102644;278;98552;-58
2023/06/08 03:07:09;;;;;;;11.20;7.90;;;;;;;13.99;78.94;100678.22;102608;278;119491;-59
2023/06/08 03:09:43;;;;;;;8.80;7.80;;;;;;;14.03;78.76;100677.98;102512;278;106160;-56
2023/06/08 03:12:21;;;;;;;11.00;7.40;;;;;;;14.08;78.77;100681.05;102525;278;113513;-59
2023/06/08 03:15:01;;;;;;;10.80;8.10;;;;;;;14.08;78.66;100684.60;102607;278;96402;-55
2023/06/08 03:17:38;;;;;;;10.60;7.30;;;;;;;14.19;78.70;100684.88;102040;278;642560;-55
2023/06/08 03:20:12;;;;;;;;;;;;;;;14.30;78.73;100686.48;102502;278;119957;-57
2023/06/08 03:22:52;;;;;;;8.60;7.60;;;;;;;14.41;78.60;100687.00;102578;279;103632;-57
2023/06/08 03:25:30;;;;;;;8.70;7.60;;;;;;;14.60;78.55;100684.00;102568;278;114872;-58
2023/06/08 03:28:05;;;;;;;7.30;6.60;;;;;;;15.04;78.27;100684.89;102591;278;93660;-59
2023/06/08 03:30:43;;;;;;;10.00;7.90;;;;;;;15.87;77.56;100683.25;102674;278;98085;-59
2023/06/08 03:33:25;;;;;;;8.10;7.20;;;;;;;16.92;76.35;100682.39;102665;278;119824;-59
2023/06/08 03:35:58;;;;;;;7.20;6.50;;;;;;;17.91;74.83;100675.34;102595;278;104987;-55
2023/06/08 03:38:44;;;;;;;7.90;7.10;;;;;;;18.95;73.32;100678.65;102546;278;114197;-55
2023/06/08 03:41:18;;;;;;;7.90;6.50;;;;;;;19.80;71.33;100677.81;102525;278;95090;-56
2023/06/08 03:43:51;;;;;;;7.60;6.20;;;;;;;20.56;69.78;100679.20;102593;278;97338;-57
2023/06/08 03:46:28;;;;;;;7.80;5.90;;;;;;;21.26;68.05;100682.55;102591;278;120099;-56
2023/06/08 03:49:02;;;;;;;6.80;6.10;;;;;;;21.97;66.39;100679.69;102599;278;106077;-59
2023/06/08 03:51:43;;;;;;;7.50;6.30;;;;;;;22.47;65.29;100682.16;102685;278;114030;-59
2023/06/08 03:54:22;;;;;;;7.60;5.80;;;;;;;23.15;63.41;100683.66;102549;278;95089;-58
2023/06/08 03:56:58;;;;;;;9.10;6.20;;;;;;;23.70;61.74;100685.67;102656;278;98223;-59
2023/06/08 03:59:40;;;;;;;8.60;6.30;;;;;;;24.32;60.28;100681.66;102529;279;120272;-60
2023/06/08 04:02:23;;;;;;;6.50;5.90;;;;;;;24.85;58.67;100685.47;102572;278;104992;-60
2023/06/08 04:04:59;;;;;;;6.60;6.00;;;;;;;25.32;57.37;100681.27;102563;278;115044;-59
2023/06/08 04:07:39;;;;;;;6.90;6.00;;;;;;;25.61;56.07;100672.09;102547;267;94285;-59
2023/06/08 04:10:13;;;;;;;6.50;5.80;;;;;;;26.05;54.56;100673.46;102556;278;98387;-56
2023/06/08 04:12:52;;;;;;;6.60;5.70;;;;;;;26.42;53.51;100673.94;102472;279;119288;-56
2023/06/08 04:15:26;;;;;;;7.90;5.20;;;;;;;26.96;52.09;100670.09;102609;279;104452;-59
2023/06/08 04:18:03;;;;;;;7.50;5.40;;;;;;;27.29;50.97;100675.02;102597;278;113792;-59
2023/06/08 04:20:35;;;;;;;6.00;5.40;;;;;;;27.22;49.89;100674.02;102544;278;93947;-61
2023/06/08 04:23:06;;;;;;;8.50;5.40;;;;;;;26.35;49.55;100673.69;102577;278;97848;-60
2023/06/08 04:25:39;;;;;;;6.90;5.30;;;;;;;25.12;50.23;100675.04;102523;278;118466;-57
2023/06/08 04:28:12;;;;;;;6.90;5.30;;;;;;;24.23;50.39;100686.71;102566;278;105745;-57
2023/06/08 04:30:59;;;;;;;8.20;5.70;;;;;;;23.43;51.03;100693.05;102387;279;114804;-58
2023/06/08 04:33:36;;;;;;;8.40;5.60;;;;;;;22.85;51.81;100689.98;102565;278;93817;-56
2023/06/08 04:36:12;;;;;;;6.40;5.30;;;;;;;22.92;52.14;100691.20;102596;275;95788;-57
2023/06/08 04:38:43;;;;;;;7.30;5.30;;;;;;;22.44;52.50;100686.98;102595;266;119610;-58
2023/06/08 04:41:26;;;;;;;6.90;5.00;;;;;;;21.99;53.13;100693.09;102600;278;106036;-59
2023/06/08 04:44:08;;;;;;;6.60;5.20;;;;;;;21.78;53.66;100694.69;102593;278;114055;-55
2023/06/08 04:46:44;;;;;;;6.10;5.50;;;;;;;22.69;53.51;100698.30;102567;278;94677;-60
2023/06/08 04:49:16;;;;;;;6.90;5.00;;;;;;;24.16;52.11;100692.20;102623;278;96427;-59
2023/06/08 04:51:55;;;;;;;5.50;4.30;;;;;;;25.20;50.56;100690.20;102595;278;118705;-59
2023/06/08 04:54:33;;;;;;;5.80;4.80;;;;;;;26.09;49.47;100686.56;102594;277;105364;-61
2023/06/08 04:57:08;;;;;;;5.70;5.10;;;;;;;26.92;48.09;100683.99;102671;278;114180;-59
2023/06/08 04:59:43;;;;;;;6.00;5.00;;;;;;;27.72;46.88;100685.15;102638;278;94527;-59
2023/06/08 05:02:25;;;;;;;6.10;4.70;;;;;;;28.77;45.36;100684.10;102642;277;99074;-61
2023/06/08 05:04:59;;;;;;;6.70;5.00;;;;;;;29.31;44.23;100681.06;102676;277;122285;-61
2023/06/08 05:07:41;;;;;;;;;;;;;;;30.01;43.58;100683.88;102666;278;104505;-60
2023/06/08 05:10:13;;;;;;;7.20;5.30;;;;;;;30.37;42.16;100677.63;102666;278;113933;-61
2023/06/08 05:12:49;;;;;;;5.70;4.70;;;;;;;30.88;41.01;100679.98;102605;278;92853;-62
2023/06/08 05:15:25;;;;;;;6.20;4.90;;;;;;;31.16;40.24;100682.42;102550;278;95510;-57
2023/06/08 05:18:00;;;;;;;5.40;4.80;;;;;;;31.20;39.42;100684.09;102562;278;120636;-55
2023/06/08 05:20:38;;;;;;;5.80;5.20;;;;;;;31.63;38.90;100684.23;102587;279;105302;-58
2023/06/08 05:23:21;;;;;;;5.90;4.80;;;;;;;32.05;38.10;100685.08;102513;278;114137;-66
2023/06/08 05:26:03;;;;;;;7.00;5.40;;;;;;;32.43;37.28;100688.58;102542;278;93662;-59
2023/06/08 05:28:38;;;;;;;6.50;4.60;;;;;;;32.67;36.45;100688.17;102562;278;96315;-60
2023/06/08 05:31:16;;;;;;;6.00;4.60;;;;;;;32.80;35.77;100687.95;102530;278;119026;-57
2023/06/08 05:33:53;;;;;;;5.90;4.60;;;;;;;33.17;35.26;100683.50;102634;278;104091;-61
2023/06/08 05:36:32;;;;;;;5.70;4.50;;;;;;;33.39;34.56;100681.02;102635;277;113687;-60
2023/06/08 05:39:06;;;;;;;7.70;4.40;;;;;;;33.63;34.02;100678.69;102665;277;95779;-58
2023/06/08 05:41:47;;;;;;;5.60;4.70;;;;;;;33.76;33.34;100676.69;102630;278;98246;-58
2023/06/08 05:44:21;;;;;;;5.00;4.30;;;;;;;33.86;33.04;100676.60;102658;278;118939;-61
2023/06/08 05:46:55;;;;;;;5.40;4.10;;;;;;;33.74;32.47;100677.98;102605;278;105839;-62
2023/06/08 05:49:27;;;;;;;4.40;4.00;;;;;;;33.40;32.37;100678.40;102667;278;114419;-58
2023/06/08 05:52:00;;;;;;;4.70;3.90;;;;;;;33.87;32.20;100675.55;102506;278;94122;-57
2023/06/08 05:54:39;;;;;;;5.30;4.70;;;;;;;34.39;31.65;100681.20;102645;278;96989;-60
2023/06/08 05:57:12;;;;;;;5.60;4.40;;;;;;;34.81;30.96;100679.14;102579;278;120388;-60
2023/06/08 05:59:50;;;;;;;6.80;4.50;;;;;;;35.20;30.37;100674.75;102541;278;104486;-58
2023/06/08 06:02:29;;;;;;;4.70;4.30;;;;;;;35.11;30.06;100675.27;102533;278;114419;-59
2023/06/08 06:05:08;;;;;;;6.00;4.30;;;;;;;34.94;29.82;100677.54;102585;278;93187;-57
2023/06/08 06:07:49;;;;;;;6.70;4.70;;;;;;;35.43;29.75;100677.31;102601;278;98215;-57
2023/06/08 06:10:26;;;;;;;5.40;4.20;;;;;;;35.87;29.18;100672.80;102565;278;119936;-56
2023/06/08 06:13:08;;;;;;;5.50;4.10;;;;;;;36.06;28.87;100674.27;102555;278;105610;-57
2023/06/08 06:15:43;;;;;;;3.90;3.50;;;;;;;36.31;28.54;100673.20;102541;278;114441;-58
2023/06/08 06:18:19;;;;;;;4.30;3.80;;;;;;;36.41;28.18;100672.65;102462;279;94914;-58
2023/06/08 06:20:57;;;;;;;5.60;4.20;;;;;;;36.38;27.81;100679.04;102613;278;96193;-61
2023/06/08 06:23:36;;;;;;;6.70;3.70;;;;;;;36.26;28.02;100677.48;102517;278;120200;-62
2023/06/08 06:26:14;;;;;;;5.30;3.90;;;;;;;36.25;27.49;100678.48;102523;278;104024;-59
2023/06/08 06:28:49;;;;;;;4.20;3.80;;;;;;;36.06;27.19;100681.41;102526;278;113704;-63
2023/06/08 06:31:21;;;;;;;4.50;4.10;;;;;;;36.46;27.01;100679.30;102541;278;95300;-63
2023/06/08 06:33:54;;;;;;;4.10;3.50;;;;;;;36.81;26.65;100675.45;102569;278;97742;-61
2023/06/08 06:36:30;;;;;;;5.20;3.80;;;;;;;36.83;26.79;100672.61;102583;278;118924;-61
2023/06/08 06:39:07;;;;;;;4.70;3.40;;;;;;;37.00;26.39;100666.94;102582;278;105203;-62
2023/06/08 06:41:48;;;;;;;3.70;3.30;;;;;;;36.82;26.04;100670.73;102378;279;113939;-59
2023/06/08 06:44:37;;;;;;;4.70;3.60;;;;;;;36.75;25.87;100668.52;102414;280;94907;-62
2023/06/08 06:47:12;;;;;;;4.50;3.30;;;;;;;37.01;25.84;100665.73;102554;278;97716;-61
2023/06/08 06:49:47;;;;;;;4.40;3.80;;;;;;;36.68;25.79;100670.73;102610;278;117897;-62
2023/06/08 06:52:23;;;;;;;4.20;3.30;;;;;;;36.69;26.03;100670.77;102603;278;105243;-61
2023/06/08 06:54:56;;;;;;;4.10;2.80;;;;;;;36.48;25.71;100671.43;102567;278;114259;-63
2023/06/08 06:57:28;;;;;;;3.30;3.00;;;;;;;36.53;25.54;100668.48;102492;279;93726;-63
2023/06/08 07:00:07;;;;;;;5.40;3.30;;;;;;;36.58;25.52;100670.13;102604;278;98225;-62
2023/06/08 07:02:40;;;;;;;3.70;3.00;;;;;;;36.88;25.57;100666.32;102517;278;117926;-62
2023/06/08 07:05:15;;;;;;;;;;;;;;;37.47;25.35;100669.61;102577;278;105979;-61
2023/06/08 07:07:51;;;;;;;4.40;3.40;;;;;;;37.36;25.09;100672.19;102523;279;114920;-63
2023/06/08 07:10:32;;;;;;;2.90;2.60;;;;;;;37.51;24.82;100668.58;102623;278;93651;-63
2023/06/08 07:13:06;;;;;;;3.30;3.00;;;;;;;37.48;24.67;100667.77;102598;278;98077;-60
2023/06/08 07:15:41;;;;;;;3.60;3.30;;;;;;;37.55;24.68;100664.65;102615;278;116975;-62
2023/06/08 07:18:17;;;;;;;5.20;3.10;;;;;;;37.26;24.71;100667.40;102591;278;105338;-61
2023/06/08 07:20:52;;;;;;;4.70;3.20;;;;;;;37.30;25.15;100670.31;102680;278;114129;-62
2023/06/08 07:23:27;;;;;;;3.10;2.80;;;;;;;37.52;24.91;100662.15;102583;278;93812;-63
2023/06/08 07:26:12;;;;;;;4.30;2.90;;;;;;;37.92;24.58;100663.49;102638;278;96141;-65
2023/06/08 07:28:54;;;;;;;5.70;3.30;;;;;;;38.05;24.30;100659.95;102408;278;117340;-63
2023/06/08 07:31:36;;;;;;;3.20;2.90;;;;;;;37.89;24.08;100661.08;102554;278;105576;-64
2023/06/08 07:34:12;;;;;;;3.60;2.90;;;;;;;37.79;24.31;100658.75;102407;278;114195;-62
2023/06/08 07:36:46;;;;;;;2.80;2.50;;;;;;;37.35;24.40;100661.44;102542;278;92618;-64
2023/06/08 07:39:22;;;;;;;3.60;2.80;;;;;;;37.38;23.99;100659.29;102604;278;98379;-63
2023/06/08 07:41:56;;;;;;;3.10;2.80;;;;;;;37.31;24.06;100661.16;102588;278;118622;-60
2023/06/08 07:44:30;;;;;;;3.40;3.10;;;;;;;37.55;23.83;100657.64;102595;278;105072;-56
2023/06/08 07:47:08;;;;;;;3.20;2.90;;;;;;;37.47;23.86;100655.27;102486;279;115082;-56
2023/06/08 07:49:45;;;;;;;3.20;2.90;;;;;;;37.34;23.86;100659.65;102572;278;94979;-59
2023/06/08 07:52:25;;;;;;;4.20;3.50;;;;;;;37.25;24.01;100657.23;102564;278;95128;-60
2023/06/08 07:55:00;;;;;;;3.50;2.90;;;;;;;37.54;23.68;100652.64;102578;278;119671;-60
2023/06/08 07:57:44;;;;;;;3.10;2.70;;;;;;;37.44;23.59;100656.86;102449;279;107367;-61
2023/06/08 08:00:23;;;;;;;4.60;2.80;;;;;;;37.41;23.92;100654.29;102608;278;114281;-64
2023/06/08 08:03:03;;;;;;;2.60;2.40;;;;;;;37.32;23.71;100657.04;102586;278;93979;-64
2023/06/08 08:05:40;;;;;;;2.80;2.30;;;;;;;37.53;23.61;100652.60;102575;278;95933;-58
2023/06/08 08:08:13;;;;;;;3.90;2.60;;;;;;;37.67;23.54;100650.63;102517;278;119287;-63
2023/06/08 08:10:49;;;;;;;4.00;3.10;;;;;;;37.94;23.33;100651.94;102379;279;104060;-59
2023/06/08 08:13:28;;;;;;;4.60;2.80;;;;;;;37.35;23.29;100657.44;102501;278;115005;-60
2023/06/08 08:16:01;;;;;;;3.00;2.70;;;;;;;37.61;23.48;100655.23;102567;279;94699;-57
2023/06/08 08:18:47;;;;;;;5.50;2.70;;;;;;;37.44;23.16;100662.65;102539;278;98821;-59
2023/06/08 08:21:19;;;;;;;4.30;2.70;;;;;;;37.04;23.52;100660.44;102543;278;118339;-64
2023/06/08 08:23:53;;;;;;;3.20;2.60;;;;;;;37.12;23.54;100662.35;102626;278;105240;-60
2023/06/08 08:26:34;;;;;;;3.60;3.00;;;;;;;37.44;23.49;100653.89;102474;278;114394;-61
2023/06/08 08:29:05;;;;;;;4.20;2.90;;;;;;;37.48;22.91;100648.83;102545;278;93734;-63
2023/06/08 08:31:39;;;;;;;4.70;3.30;;;;;;;37.33;23.08;100649.55;102635;278;98693;-64
2023/06/08 08:34:11;;;;;;;4.10;2.90;;;;;;;37.15;23.30;100645.84;102717;278;118675;-65
2023/06/08 08:36:49;;;;;;;4.00;3.20;;;;;;;36.78;23.14;100650.97;102772;278;106285;-63
2023/06/08 08:39:28;;;;;;;3.30;3.00;;;;;;;36.29;23.22;100648.72;102633;278;113860;-62
2023/06/08 08:42:11;;;;;;;3.80;2.80;;;;;;;36.26;23.42;100649.09;102585;278;93620;-62
2023/06/08 08:44:45;;;;;;;8.20;3.40;;;;;;;36.44;23.46;100646.33;102586;274;98000;-64
2023/06/08 08:47:21;;;;;;;3.90;3.50;;;;;;;36.13;23.91;100646.68;102624;278;118384;-65
2023/06/08 08:50:03;;;;;;;5.70;2.90;;;;;;;35.83;24.07;100642.23;102597;278;105679;-62
2023/06/08 08:52:46;;;;;;;3.30;3.00;;;;;;;35.69;24.04;100641.68;102617;278;114895;-63
2023/06/08 08:55:33;;;;;;;5.30;2.90;;;;;;;35.37;24.42;100634.33;102645;278;94445;-66
2023/06/08 08:58:13;;;;;;;4.40;3.00;;;;;;;34.84;24.50;100636.55;102557;278;97277;-66
2023/06/08 09:00:57;;;;;;;4.70;2.90;;;;;;;33.78;25.25;100637.98;102434;280;118856;-67
2023/06/08 09:03:30;;;;;;;5.10;3.20;;;;;;;33.01;26.10;100634.14;102380;280;103902;-64
2023/06/08 09:06:07;;;;;;;4.80;3.30;;;;;;;32.75;26.84;100635.89;102438;278;115802;-65
2023/06/08 09:08:43;;;;;;;4.60;3.00;;;;;;;32.63;26.99;100637.52;102513;278;92358;-64
2023/06/08 09:11:21;;;;;;;4.70;2.80;;;;;;;32.17;27.11;100630.88;102539;278;96700;-60
2023/06/08 09:14:07;;;;;;;3.70;3.00;;;;;;;31.84;27.59;100627.46;102551;278;118898;-63
2023/06/08 09:16:49;;;;;;;12.90;3.70;;;;;;;31.55;28.20;100626.35;102515;278;103020;-62
2023/06/08 09:19:23;;;;;;;7.40;3.10;;;;;;;31.29;28.68;100627.23;102582;278;113722;-67
2023/06/08 09:21:57;;;;;;;5.40;2.70;;;;;;;31.10;28.80;100623.83;102594;278;92963;-61
2023/06/08 09:24:34;;;;;;;4.30;3.50;;;;;;;30.59;28.86;100621.17;102621;278;95902;-65
2023/06/08 09:27:08;;;;;;;3.90;2.80;;;;;;;30.01;29.35;100623.33;102609;278;118521;-63
2023/06/08 09:29:44;;;;;;;4.50;3.20;;;;;;;29.95;30.14;100620.39;102554;278;104514;-63
2023/06/08 09:32:26;;;;;;;4.30;3.10;;;;;;;30.00;30.44;100620.73;102523;278;112226;-58
2023/06/08 09:35:03;;;;;;;4.50;3.30;;;;;;;30.04;30.48;100615.63;102477;280;93794;-60
2023/06/08 09:37:39;;;;;;;6.00;2.80;;;;;;;29.67;30.65;100613.60;102440;279;95547;-60
2023/06/08 09:40:31;;;;;;;6.20;3.30;;;;;;;29.50;30.89;100615.13;102537;278;119870;-59
2023/06/08 09:43:04;;;;;;;3.60;2.80;;;;;;;29.52;30.89;100612.02;102453;279;105196;-60
2023/06/08 09:45:44;;;;;;;4.50;3.30;;;;;;;29.48;31.14;100610.49;102602;278;115168;-57
2023/06/08 09:48:17;;;;;;;4.80;2.90;;;;;;;29.54;31.08;100602.64;102537;278;94382;-55
2023/06/08 09:50:51;;;;;;;5.10;2.90;;;;;;;29.51;31.03;100606.20;102582;278;98084;-57
2023/06/08 09:53:24;;;;;;;5.20;3.00;;;;;;;29.45;30.80;100609.95;102424;280;119603;-57
2023/06/08 09:56:06;;;;;;;3.60;2.80;;;;;;;29.15;31.06;100606.00;102473;279;106330;-61
2023/06/08 09:58:41;;;;;;;4.10;2.80;;;;;;;29.01;31.19;100602.10;102513;278;114764;-60
2023/06/08 10:01:18;;;;;;;3.60;3.20;;;;;;;29.03;31.45;100599.70;102545;279;93857;-57
2023/06/08 10:03:57;;;;;;;5.30;2.80;;;;;;;29.07;31.50;100601.48;102580;278;96236;-60
2023/06/08 10:06:33;;;;;;;3.50;2.80;;;;;;;29.09;31.61;100596.80;102565;278;119984;-59
2023/06/08 10:09:11;;;;;;;4.70;3.10;;;;;;;29.17;31.73;100594.42;102458;280;105170;-57
2023/06/08 10:11:43;;;;;;;3.80;3.30;;;;;;;29.13;31.72;100593.13;102587;278;115166;-62
2023/06/08 10:14:17;;;;;;;9.10;3.30;;;;;;;29.19;31.91;100592.73;102478;279;93384;-62
2023/06/08 10:16:58;;;;;;;4.80;3.20;;;;;;;28.97;31.71;100583.69;102514;278;96335;-62
2023/06/08 10:19:37;;;;;;;4.50;2.90;;;;;;;28.95;31.90;100582.51;102450;280;118070;-62
2023/06/08 10:22:14;;;;;;;4.90;2.60;;;;;;;29.01;32.01;100589.68;102613;278;105573;-66
2023/06/08 10:24:51;;;;;;;3.50;2.90;;;;;;;28.92;31.89;100586.95;102587;278;114736;-62
2023/06/08 10:27:35;;;;;;;5.40;2.90;;;;;;;28.83;32.07;100582.41;102548;278;95127;-63
2023/06/08 10:30:11;;;;;;;6.60;3.10;;;;;;;28.87;32.26;100573.83;102555;279;97098;-62
2023/06/08 10:32:45;;;;;;;4.10;3.10;;;;;;;29.01;32.41;100569.27;102532;278;120158;-58
2023/06/08 10:35:19;;;;;;;7.10;3.40;;;;;;;28.89;31.94;100569.92;102567;278;105582;-60
2023/06/08 10:38:07;;;;;;;6.20;3.00;;;;;;;28.75;32.15;100571.31;102525;278;114702;-61
2023/06/08 10:40:46;;;;;;;5.50;2.70;;;;;;;28.60;32.06;100568.15;102563;278;92363;-57
2023/06/08 10:43:31;;;;;;;4.70;3.30;;;;;;;28.53;32.01;100558.36;102536;278;97275;-58
2023/06/08 10:46:13;;;;;;;4.40;2.90;;;;;;;28.80;32.12;100565.22;102567;278;118443;-58
2023/06/08 10:48:46;;;;;;;5.00;3.10;;;;;;;28.83;31.91;100569.71;102544;278;106016;-59
2023/06/08 10:51:29;;;;;;;4.40;3.10;;;;;;;28.89;31.68;100561.72;102522;278;114472;-60
2023/06/08 10:54:09;;;;;;;3.90;3.40;;;;;;;28.89;31.69;100558.94;102522;278;94791;-57
2023/06/08 10:56:52;;;;;;;3.70;2.90;;;;;;;29.01;31.88;100557.20;102556;278;98824;-58
2023/06/08 10:59:37;;;;;;;5.00;3.10;;;;;;;29.08;31.64;100557.48;102555;279;120493;-59
2023/06/08 11:02:15;;;;;;;4.90;3.00;;;;;;;29.10;31.80;100558.29;102491;279;107653;-60
2023/06/08 11:04:56;;;;;;;4.30;3.10;;;;;;;29.33;31.90;100557.42;102555;279;112724;-57
2023/06/08 11:07:34;;;;;;;3.30;3.00;;;;;;;29.29;31.56;100550.52;102484;278;94582;-55
2023/06/08 11:10:09;;;;;;;4.90;2.80;;;;;;;29.21;31.55;100547.95;102600;266;96192;-56
2023/06/08 11:12:46;;;;;;;3.30;2.80;;;;;;;28.96;31.71;100549.93;102503;279;119900;-57
2023/06/08 11:15:25;;;;;;;3.50;3.10;;;;;;;28.61;31.97;100553.58;102529;278;105934;-60
2023/06/08 11:18:04;;;;;;;4.30;3.20;;;;;;;28.62;31.98;100548.45;102026;279;608504;-60
2023/06/08 11:20:37;;;;;;;4.70;3.20;;;;;;;28.62;31.98;100543.59;102479;278;95044;-57
2023/06/08 11:23:11;;;;;;;4.80;3.40;;;;;;;28.82;32.06;100542.25;102565;278;97189;-56
2023/06/08 11:25:45;;;;;;;;;;;;;;;28.81;32.09;100538.98;102523;279;119342;-56
2023/06/08 11:28:19;;;;;;;;;;;;;;;28.44;32.59;100539.13;102544;278;105687;-56
2023/06/08 11:31:13;;;;;;;4.00;3.30;;;;;;;28.48;32.81;100536.60;102518;278;114868;-56
2023/06/08 11:33:52;;;;;;;5.70;3.40;;;;;;;28.54;32.93;100529.26;102518;278;95034;-57
2023/06/08 11:36:24;;;;;;;4.60;2.90;;;;;;;28.25;32.59;100527.84;102547;278;97815;-56
2023/06/08 11:38:55;;;;;;;4.60;3.30;;;;;;;28.23;33.10;100523.92;102564;278;119048;-57
2023/06/08 11:41:38;;;;;;;8.90;3.90;;;;;;;28.39;32.93;100516.42;102558;279;104621;-56
2023/06/08 11:44:12;;;;;;;4.30;3.30;;;;;;;28.52;32.96;100518.13;102558;278;115030;-57
2023/06/08 11:46:50;;;;;;;7.70;3.60;;;;;;;28.58;33.21;100512.48;102502;279;94636;-57
2023/06/08 11:49:23;;;;;;;4.80;2.90;;;;;;;28.82;33.17;100509.27;102537;278;96120;-60
2023/06/08 11:52:04;;;;;;;4.30;3.50;;;;;;;28.82;32.88;100510.38;102541;278;118432;-59
2023/06/08 11:54:40;;;;;;;7.00;4.00;;;;;;;28.65;32.78;100504.98;102575;278;105036;-56
2023/06/08 11:57:19;;;;;;;7.90;3.20;;;;;;;28.57;32.76;100511.60;102518;278;114042;-56
2023/06/08 12:00:06;;;;;;;6.90;3.50;;;;;;;28.40;32.35;100508.68;102483;278;94614;-60
2023/06/08 12:02:39;;;;;;;4.90;3.20;;;;;;;28.47;32.31;100508.39;102572;278;97569;-59
2023/06/08 12:05:17;;;;;;;6.10;3.30;;;;;;;28.37;32.31;100502.00;102552;278;119290;-59
2023/06/08 12:08:10;;;;;;;4.00;3.00;;;;;;;28.48;32.44;100501.56;102559;278;105368;-60
2023/06/08 12:10:50;;;;;;;3.80;2.80;;;;;;;28.53;32.80;100505.39;102422;280;114769;-60